createdAt,value
2017-02-02T00:00:02.317Z,0
2017-02-02T00:01:13.075Z,0
2017-02-02T00:02:23.829Z,0
2017-02-02T00:03:34.578Z,0
2017-02-02T00:04:44.932Z,0
2017-02-02T00:05:55.675Z,0
2017-02-02T00:07:06.053Z,0
2017-02-02T00:08:16.424Z,0
2017-02-02T00:09:27.159Z,0
2017-02-02T00:10:37.903Z,0
2017-02-02T00:11:47.854Z,0
2017-02-02T00:12:58.632Z,0
2017-02-02T00:14:08.605Z,0
2017-02-02T00:15:18.562Z,0
2017-02-02T00:16:29.307Z,0
2017-02-02T00:17:40.045Z,0
2017-02-02T00:18:50.788Z,0
2017-02-02T00:20:01.150Z,0
2017-02-02T00:21:11.899Z,0
2017-02-02T00:22:22.650Z,0
2017-02-02T00:23:33.391Z,0
2017-02-02T00:24:44.135Z,0
2017-02-02T00:25:54.514Z,0
2017-02-02T00:27:05.260Z,0
2017-02-02T00:28:16.253Z,0
2017-02-02T00:29:26.598Z,0
2017-02-02T00:30:35.382Z,0
2017-02-02T00:31:45.341Z,0
2017-02-02T00:32:55.691Z,0
2017-02-02T00:34:06.441Z,0
2017-02-02T00:35:17.428Z,0
2017-02-02T00:36:27.385Z,0
2017-02-02T00:37:38.142Z,0
2017-02-02T00:38:48.889Z,0
2017-02-02T00:39:59.647Z,0
2017-02-02T00:41:09.225Z,0
2017-02-02T00:42:19.566Z,0
2017-02-02T00:43:30.357Z,0
2017-02-02T00:44:40.700Z,0
2017-02-02T00:45:51.450Z,0
2017-02-02T00:47:01.412Z,0
2017-02-02T00:48:11.780Z,0
2017-02-02T00:49:22.535Z,0
2017-02-02T00:50:32.886Z,0
2017-02-02T00:51:43.628Z,0
2017-02-02T00:52:54.381Z,0
2017-02-02T00:54:04.719Z,0
2017-02-02T00:55:14.671Z,0
2017-02-02T00:56:25.417Z,0
2017-02-02T00:57:35.794Z,0
2017-02-02T00:58:46.538Z,0
2017-02-02T00:59:57.290Z,0
2017-02-02T01:01:08.009Z,0
2017-02-02T01:02:18.342Z,0
2017-02-02T01:03:28.276Z,0
2017-02-02T01:04:39.036Z,0
2017-02-02T01:05:49.005Z,0
2017-02-02T01:06:59.754Z,0
2017-02-02T01:08:10.478Z,0
2017-02-02T01:09:21.213Z,0
2017-02-02T01:10:31.977Z,0
2017-02-02T01:11:42.322Z,0
2017-02-02T01:12:52.671Z,0
2017-02-02T01:14:02.621Z,0
2017-02-02T01:15:13.362Z,0
2017-02-02T01:16:24.113Z,0
2017-02-02T01:17:34.875Z,0
2017-02-02T01:18:45.628Z,0
2017-02-02T01:19:55.987Z,0
2017-02-02T01:21:06.736Z,0
2017-02-02T01:22:16.693Z,0
2017-02-02T01:23:27.050Z,0
2017-02-02T01:24:37.396Z,0
2017-02-02T01:25:47.750Z,0
2017-02-02T01:26:58.095Z,0
2017-02-02T01:28:08.836Z,0
2017-02-02T01:29:19.570Z,0
2017-02-02T01:30:30.324Z,0
2017-02-02T01:31:40.678Z,0
2017-02-02T01:32:50.640Z,0
2017-02-02T01:34:00.990Z,0
2017-02-02T01:35:11.731Z,0
2017-02-02T01:36:22.468Z,0
2017-02-02T01:37:32.815Z,0
2017-02-02T01:38:43.562Z,0
2017-02-02T01:39:53.920Z,0
2017-02-02T01:41:04.272Z,0
2017-02-02T01:42:15.019Z,0
2017-02-02T01:43:25.766Z,0
2017-02-02T01:44:36.510Z,0
2017-02-02T01:45:46.470Z,0
2017-02-02T01:46:57.218Z,0
2017-02-02T01:48:07.578Z,0
2017-02-02T01:49:18.324Z,0
2017-02-02T01:50:28.671Z,0
2017-02-02T01:51:39.421Z,0
2017-02-02T01:52:50.169Z,0
2017-02-02T01:54:00.924Z,0
2017-02-02T01:55:11.273Z,0
2017-02-02T01:56:21.628Z,0
2017-02-02T01:57:32.366Z,0
2017-02-02T01:58:43.104Z,0
2017-02-02T01:59:53.467Z,0
2017-02-02T02:01:04.220Z,0
2017-02-02T02:02:14.571Z,0
2017-02-02T02:03:24.924Z,0
2017-02-02T02:04:35.906Z,0
2017-02-02T02:05:46.652Z,0
2017-02-02T02:06:57.407Z,0
2017-02-02T02:08:07.769Z,0
2017-02-02T02:09:18.106Z,0
2017-02-02T02:10:28.454Z,0
2017-02-02T02:11:38.406Z,0
2017-02-02T02:12:49.143Z,0
2017-02-02T02:13:59.480Z,0
2017-02-02T02:15:09.430Z,0
2017-02-02T02:16:19.785Z,0
2017-02-02T02:17:30.528Z,0
2017-02-02T02:18:41.282Z,0
2017-02-02T02:19:52.049Z,0
2017-02-02T02:21:02.391Z,0
2017-02-02T02:22:12.353Z,0
2017-02-02T02:23:23.102Z,0
2017-02-02T02:24:33.846Z,0
2017-02-02T02:25:44.182Z,0
2017-02-02T02:26:54.924Z,0
2017-02-02T02:28:05.270Z,0
2017-02-02T02:29:16.007Z,0
2017-02-02T02:30:26.766Z,0
2017-02-02T02:31:37.125Z,0
2017-02-02T02:32:47.485Z,0
2017-02-02T02:33:57.452Z,0
2017-02-02T02:35:07.802Z,0
2017-02-02T02:36:18.167Z,0
2017-02-02T02:37:28.519Z,0
2017-02-02T02:38:39.254Z,0
2017-02-02T02:39:50.003Z,0
2017-02-02T02:41:00.358Z,0
2017-02-02T02:42:10.703Z,0
2017-02-02T02:43:21.435Z,0
2017-02-02T02:44:32.187Z,0
2017-02-02T02:45:42.527Z,0
2017-02-02T02:46:52.867Z,0
2017-02-02T02:48:03.239Z,0
2017-02-02T02:49:13.995Z,0
2017-02-02T02:50:24.351Z,0
2017-02-02T02:51:35.089Z,0
2017-02-02T02:52:45.427Z,0
2017-02-02T02:53:55.402Z,0
2017-02-02T02:55:06.151Z,0
2017-02-02T02:56:16.501Z,0
2017-02-02T02:57:26.852Z,0
2017-02-02T02:58:37.607Z,0
2017-02-02T02:59:48.380Z,0
2017-02-02T03:00:58.337Z,0
2017-02-02T03:32:56.521Z,0
2017-02-02T03:34:07.489Z,0
2017-02-02T03:35:18.227Z,0
2017-02-02T03:36:28.964Z,0
2017-02-02T03:37:38.917Z,0
2017-02-02T03:38:49.648Z,0
2017-02-02T03:39:59.199Z,0
2017-02-02T03:41:09.544Z,0
2017-02-02T03:42:19.498Z,0
2017-02-02T03:43:30.222Z,0
2017-02-02T03:44:40.174Z,0
2017-02-02T03:45:50.518Z,0
2017-02-02T03:47:00.486Z,0
2017-02-02T03:48:10.842Z,0
2017-02-02T03:49:21.570Z,0
2017-02-02T03:50:32.312Z,0
2017-02-02T03:51:42.662Z,0
2017-02-02T03:52:53.001Z,0
2017-02-02T03:54:03.344Z,0
2017-02-02T03:55:13.692Z,0
2017-02-02T03:56:24.438Z,0
2017-02-02T03:57:34.779Z,0
2017-02-02T03:58:45.132Z,0
2017-02-02T03:59:55.097Z,0
2017-02-02T04:01:05.455Z,0
2017-02-02T04:02:16.199Z,0
2017-02-02T04:03:26.541Z,0
2017-02-02T04:04:37.276Z,0
2017-02-02T04:05:48.010Z,0
2017-02-02T04:06:57.579Z,0
2017-02-02T04:08:07.942Z,0
2017-02-02T04:09:18.696Z,0
2017-02-02T04:10:29.451Z,0
2017-02-02T04:11:39.801Z,0
2017-02-02T04:12:50.133Z,0
2017-02-02T04:14:00.876Z,0
2017-02-02T04:15:11.615Z,0
2017-02-02T04:16:22.353Z,0
2017-02-02T04:17:32.709Z,0
2017-02-02T04:18:41.868Z,0
2017-02-02T04:19:52.212Z,0
2017-02-02T04:21:03.148Z,0
2017-02-02T04:22:13.163Z,0
2017-02-02T04:23:23.916Z,0
2017-02-02T04:24:34.671Z,0
2017-02-02T04:25:44.621Z,0
2017-02-02T04:26:55.369Z,0
2017-02-02T04:28:05.323Z,0
2017-02-02T04:29:15.668Z,0
2017-02-02T04:30:26.412Z,0
2017-02-02T04:31:36.772Z,0
2017-02-02T04:32:47.122Z,0
2017-02-02T04:33:57.474Z,0
2017-02-02T04:35:08.223Z,0
2017-02-02T04:36:18.568Z,0
2017-02-02T04:37:28.908Z,0
2017-02-02T04:38:39.254Z,0
2017-02-02T04:39:49.211Z,0
2017-02-02T04:40:59.576Z,0
2017-02-02T04:42:09.909Z,0
2017-02-02T04:43:20.272Z,0
2017-02-02T04:44:31.014Z,0
2017-02-02T04:45:41.362Z,0
2017-02-02T04:46:51.341Z,0
2017-02-02T04:48:01.678Z,0
2017-02-02T04:49:12.427Z,0
2017-02-02T04:50:22.767Z,0
2017-02-02T04:51:33.510Z,0
2017-02-02T04:52:43.860Z,0
2017-02-02T04:53:54.603Z,0
2017-02-02T04:55:04.963Z,0
2017-02-02T04:56:14.931Z,0
2017-02-02T04:57:25.276Z,0
2017-02-02T04:58:35.644Z,0
2017-02-02T04:59:46.391Z,0
2017-02-02T05:00:57.134Z,0
2017-02-02T05:02:06.703Z,0
2017-02-02T05:03:16.701Z,0
2017-02-02T05:04:27.436Z,0
2017-02-02T05:05:37.780Z,0
2017-02-02T05:06:48.522Z,0
2017-02-02T05:07:59.263Z,0
2017-02-02T05:09:10.001Z,0
2017-02-02T05:10:20.349Z,0
2017-02-02T05:11:31.101Z,0
2017-02-02T05:12:41.084Z,0
2017-02-02T05:13:51.461Z,0
2017-02-02T05:15:02.205Z,0
2017-02-02T05:16:12.943Z,0
2017-02-02T05:17:23.292Z,0
2017-02-02T05:18:34.029Z,0
2017-02-02T05:19:44.784Z,0
2017-02-02T05:20:55.552Z,0
2017-02-02T05:22:05.523Z,0
2017-02-02T05:23:15.878Z,0
2017-02-02T05:24:26.618Z,0
2017-02-02T05:25:37.364Z,0
2017-02-02T05:26:46.536Z,0
2017-02-02T05:27:57.274Z,0
2017-02-02T05:29:08.039Z,0
2017-02-02T05:30:18.780Z,0
2017-02-02T05:31:29.527Z,0
2017-02-02T05:32:40.085Z,0
2017-02-02T05:33:50.431Z,0
2017-02-02T05:35:01.178Z,0
2017-02-02T05:36:11.914Z,0
2017-02-02T05:37:22.280Z,0
2017-02-02T05:38:32.639Z,0
2017-02-02T05:39:43.001Z,0
2017-02-02T05:40:53.348Z,0
2017-02-02T05:42:04.098Z,0
2017-02-02T05:43:14.839Z,0
2017-02-02T05:44:24.792Z,0
2017-02-02T05:45:35.538Z,0
2017-02-02T05:46:46.283Z,0
2017-02-02T05:47:56.663Z,0
2017-02-02T05:49:07.001Z,0
2017-02-02T05:50:17.740Z,0
2017-02-02T05:51:28.092Z,0
2017-02-02T05:52:38.436Z,0
2017-02-02T05:53:48.805Z,0
2017-02-02T05:54:59.142Z,0
2017-02-02T05:56:09.488Z,0
2017-02-02T05:57:20.225Z,0
2017-02-02T05:58:30.589Z,0
2017-02-02T05:59:41.329Z,0
2017-02-02T06:00:51.700Z,0
2017-02-02T06:02:01.664Z,0
2017-02-02T06:03:12.416Z,0
2017-02-02T06:04:23.176Z,0
2017-02-02T06:05:33.521Z,0
2017-02-02T06:06:44.271Z,0
2017-02-02T06:07:53.853Z,0
2017-02-02T06:09:03.830Z,0
2017-02-02T06:10:14.597Z,0
2017-02-02T06:11:24.566Z,0
2017-02-02T06:12:34.910Z,0
2017-02-02T06:13:45.659Z,0
2017-02-02T06:14:55.615Z,0
2017-02-02T06:16:06.366Z,0
2017-02-02T06:17:17.103Z,0
2017-02-02T06:18:27.843Z,0
2017-02-02T06:19:38.208Z,0
2017-02-02T06:20:48.559Z,0
2017-02-02T06:21:58.905Z,0
2017-02-02T06:23:09.289Z,0
2017-02-02T06:24:19.242Z,0
2017-02-02T06:25:29.581Z,5
2017-02-02T06:26:39.946Z,5
2017-02-02T06:27:50.320Z,5
2017-02-02T06:29:01.060Z,5
2017-02-02T06:30:11.814Z,5
2017-02-02T06:31:22.571Z,5
2017-02-02T06:32:32.527Z,5
2017-02-02T06:33:42.883Z,5
2017-02-02T06:34:53.649Z,5
2017-02-02T06:36:03.617Z,5
2017-02-02T06:37:14.358Z,5
2017-02-02T06:38:25.107Z,10
2017-02-02T06:39:35.462Z,10
2017-02-02T06:40:46.208Z,10
2017-02-02T06:41:56.940Z,10
2017-02-02T06:43:06.892Z,10
2017-02-02T06:44:17.633Z,10
2017-02-02T06:45:27.975Z,10
2017-02-02T06:46:38.720Z,15
2017-02-02T06:47:49.066Z,15
2017-02-02T06:48:59.011Z,15
2017-02-02T06:50:09.353Z,15
2017-02-02T06:51:19.954Z,15
2017-02-02T06:52:30.291Z,15
2017-02-02T06:53:40.643Z,20
2017-02-02T06:54:51.401Z,20
2017-02-02T06:56:02.157Z,20
2017-02-02T06:57:12.506Z,20
2017-02-02T06:58:23.235Z,20
2017-02-02T06:59:33.981Z,20
2017-02-02T07:00:44.328Z,20
2017-02-02T07:01:54.687Z,25
2017-02-02T07:03:04.651Z,25
2017-02-02T07:04:14.214Z,25
2017-02-02T07:05:24.960Z,25
2017-02-02T07:06:35.717Z,25
2017-02-02T07:07:46.075Z,25
2017-02-02T07:08:56.830Z,25
2017-02-02T07:10:07.173Z,30
2017-02-02T07:11:17.512Z,30
2017-02-02T07:12:27.077Z,30
2017-02-02T07:13:37.426Z,30
2017-02-02T07:14:48.178Z,35
2017-02-02T07:15:58.911Z,40
2017-02-02T07:17:09.667Z,45
2017-02-02T07:18:20.023Z,50
2017-02-02T07:19:30.762Z,50
2017-02-02T07:20:41.122Z,55
2017-02-02T07:21:51.475Z,50
2017-02-02T07:23:01.850Z,50
2017-02-02T07:24:11.808Z,50
2017-02-02T07:25:22.170Z,50
2017-02-02T07:26:31.341Z,50
2017-02-02T07:27:41.683Z,50
2017-02-02T07:28:52.041Z,55
2017-02-02T07:30:02.001Z,55
2017-02-02T07:31:11.972Z,55
2017-02-02T07:32:21.926Z,60
2017-02-02T07:33:32.656Z,60
2017-02-02T07:34:42.613Z,60
2017-02-02T07:35:52.976Z,60
2017-02-02T07:37:03.723Z,60
2017-02-02T07:38:14.465Z,65
2017-02-02T07:39:25.209Z,70
2017-02-02T07:40:35.779Z,65
2017-02-02T07:41:46.121Z,65
2017-02-02T07:42:56.871Z,65
2017-02-02T07:44:07.609Z,70
2017-02-02T07:45:18.366Z,70
2017-02-02T07:46:28.720Z,75
2017-02-02T07:47:38.685Z,70
2017-02-02T07:48:49.030Z,70
2017-02-02T07:49:59.372Z,65
2017-02-02T07:51:10.112Z,70
2017-02-02T07:52:20.849Z,70
2017-02-02T07:53:31.221Z,85
2017-02-02T07:54:41.565Z,100
2017-02-02T07:55:52.302Z,105
2017-02-02T07:57:02.651Z,105
2017-02-02T07:58:12.611Z,100
2017-02-02T07:59:23.363Z,100
2017-02-02T08:00:34.115Z,105
2017-02-02T08:01:44.858Z,110
2017-02-02T08:02:54.810Z,110
2017-02-02T08:04:04.781Z,110
2017-02-02T08:05:15.533Z,110
2017-02-02T08:06:26.281Z,110
2017-02-02T08:07:36.485Z,120
2017-02-02T08:08:47.235Z,125
2017-02-02T08:09:57.971Z,125
2017-02-02T08:11:08.713Z,125
2017-02-02T08:12:19.454Z,125
2017-02-02T08:13:29.820Z,125
2017-02-02T08:14:39.824Z,120
2017-02-02T08:15:49.798Z,120
2017-02-02T08:17:00.141Z,120
2017-02-02T08:18:10.491Z,115
2017-02-02T08:19:20.844Z,115
2017-02-02T08:20:30.810Z,115
2017-02-02T08:21:41.559Z,125
2017-02-02T08:22:51.909Z,135
2017-02-02T08:24:02.659Z,140
2017-02-02T08:25:13.051Z,145
2017-02-02T08:26:23.407Z,140
2017-02-02T08:27:34.162Z,140
2017-02-02T08:28:44.894Z,135
2017-02-02T08:29:55.664Z,135
2017-02-02T08:31:06.415Z,135
2017-02-02T08:32:17.165Z,125
2017-02-02T08:33:27.124Z,115
2017-02-02T08:34:37.876Z,115
2017-02-02T08:35:48.628Z,115
2017-02-02T08:36:58.983Z,115
2017-02-02T08:38:08.954Z,115
2017-02-02T08:39:19.712Z,115
2017-02-02T08:40:30.453Z,110
2017-02-02T08:41:41.235Z,115
2017-02-02T08:42:51.568Z,115
2017-02-02T08:44:01.534Z,115
2017-02-02T08:45:11.116Z,120
2017-02-02T08:46:21.462Z,120
2017-02-02T08:47:31.439Z,120
2017-02-02T08:48:41.831Z,120
2017-02-02T08:49:52.601Z,120
2017-02-02T08:51:02.958Z,125
2017-02-02T08:52:13.711Z,125
2017-02-02T08:53:24.468Z,130
2017-02-02T08:54:35.229Z,125
2017-02-02T08:55:45.971Z,130
2017-02-02T08:56:56.726Z,135
2017-02-02T08:58:07.093Z,145
2017-02-02T08:59:17.467Z,150
2017-02-02T09:00:27.424Z,155
2017-02-02T09:01:37.786Z,155
2017-02-02T09:02:48.157Z,155
2017-02-02T09:03:58.120Z,155
2017-02-02T09:05:07.678Z,155
2017-02-02T09:06:18.435Z,160
2017-02-02T09:07:28.404Z,165
2017-02-02T09:08:38.760Z,170
2017-02-02T09:09:49.520Z,170
2017-02-02T09:10:59.891Z,175
2017-02-02T09:12:10.241Z,180
2017-02-02T09:13:21.024Z,185
2017-02-02T09:14:31.773Z,195
2017-02-02T09:15:42.521Z,205
2017-02-02T09:16:53.287Z,215
2017-02-02T09:18:04.024Z,225
2017-02-02T09:19:14.771Z,220
2017-02-02T09:20:24.729Z,220
2017-02-02T09:21:35.073Z,220
2017-02-02T09:22:45.022Z,220
2017-02-02T09:23:55.770Z,220
2017-02-02T09:25:06.119Z,220
2017-02-02T09:26:16.481Z,215
2017-02-02T09:27:26.831Z,215
2017-02-02T09:28:36.793Z,205
2017-02-02T09:29:47.141Z,200
2017-02-02T09:30:57.099Z,200
2017-02-02T09:32:07.066Z,195
2017-02-02T09:33:17.430Z,185
2017-02-02T09:34:28.029Z,175
2017-02-02T09:35:38.773Z,175
2017-02-02T09:36:49.127Z,175
2017-02-02T09:37:59.880Z,175
2017-02-02T09:39:10.231Z,175
2017-02-02T09:40:20.187Z,175
2017-02-02T09:41:30.551Z,170
2017-02-02T09:42:40.917Z,165
2017-02-02T09:43:51.677Z,160
2017-02-02T09:45:02.418Z,150
2017-02-02T09:46:13.174Z,155
2017-02-02T09:47:23.956Z,155
2017-02-02T09:48:34.710Z,160
2017-02-02T09:49:45.455Z,155
2017-02-02T09:50:55.817Z,150
2017-02-02T09:52:06.774Z,155
2017-02-02T09:53:17.513Z,160
2017-02-02T09:54:28.241Z,160
2017-02-02T09:55:38.590Z,160
2017-02-02T09:56:48.944Z,160
2017-02-02T09:57:58.906Z,155
2017-02-02T09:59:09.658Z,150
2017-02-02T10:00:20.412Z,145
2017-02-02T10:01:30.779Z,140
2017-02-02T10:02:41.116Z,140
2017-02-02T10:03:51.096Z,135
2017-02-02T10:05:01.464Z,135
2017-02-02T10:06:12.210Z,130
2017-02-02T10:07:21.768Z,130
2017-02-02T10:08:32.120Z,130
2017-02-02T10:09:42.477Z,130
2017-02-02T10:10:53.224Z,135
2017-02-02T10:12:04.008Z,140
2017-02-02T10:13:14.764Z,145
2017-02-02T10:14:23.941Z,155
2017-02-02T10:15:34.291Z,170
2017-02-02T10:16:45.032Z,185
2017-02-02T10:17:55.395Z,185
2017-02-02T10:19:06.152Z,190
2017-02-02T10:20:16.896Z,200
2017-02-02T10:21:27.658Z,200
2017-02-02T10:22:37.237Z,195
2017-02-02T10:23:47.591Z,185
2017-02-02T10:24:57.591Z,180
2017-02-02T10:26:08.415Z,185
2017-02-02T10:27:18.809Z,180
2017-02-02T10:28:29.540Z,175
2017-02-02T10:29:39.901Z,170
2017-02-02T10:30:50.640Z,160
2017-02-02T10:32:01.004Z,150
2017-02-02T10:33:10.578Z,145
2017-02-02T10:34:21.346Z,145
2017-02-02T10:35:32.093Z,145
2017-02-02T10:36:42.841Z,145
2017-02-02T10:37:53.237Z,140
2017-02-02T10:39:03.596Z,130
2017-02-02T10:40:13.547Z,125
2017-02-02T10:41:24.316Z,125
2017-02-02T10:42:34.681Z,120
2017-02-02T10:43:45.434Z,115
2017-02-02T10:44:55.785Z,115
2017-02-02T10:46:06.173Z,115
2017-02-02T10:47:16.543Z,120
2017-02-02T10:48:26.906Z,120
2017-02-02T10:49:37.247Z,125
2017-02-02T10:50:46.818Z,125
2017-02-02T10:51:57.562Z,130
2017-02-02T10:53:07.927Z,135
2017-02-02T10:54:18.705Z,135
2017-02-02T10:55:29.050Z,135
2017-02-02T10:56:39.803Z,140
2017-02-02T10:57:50.165Z,135
2017-02-02T10:59:00.539Z,135
2017-02-02T11:00:10.897Z,135
2017-02-02T11:01:21.701Z,135
2017-02-02T11:02:32.456Z,130
2017-02-02T11:03:42.832Z,125
2017-02-02T11:04:53.254Z,130
2017-02-02T11:06:04.026Z,130
2017-02-02T11:07:14.427Z,130
2017-02-02T11:08:24.789Z,135
2017-02-02T11:09:34.367Z,135
2017-02-02T11:10:45.158Z,135
2017-02-02T11:11:55.541Z,135
2017-02-02T11:13:05.920Z,135
2017-02-02T11:14:16.297Z,140
2017-02-02T11:15:27.065Z,150
2017-02-02T11:16:37.815Z,155
2017-02-02T11:17:48.163Z,160
2017-02-02T11:18:58.158Z,165
2017-02-02T11:20:08.925Z,170
2017-02-02T11:21:19.689Z,180
2017-02-02T11:22:30.449Z,185
2017-02-02T11:23:40.815Z,170
2017-02-02T11:24:50.788Z,170
2017-02-02T11:26:00.353Z,170
2017-02-02T11:27:11.106Z,170
2017-02-02T11:28:21.493Z,175
2017-02-02T11:29:31.444Z,165
2017-02-02T11:30:42.187Z,155
2017-02-02T11:31:52.959Z,150
2017-02-02T11:33:03.366Z,140
2017-02-02T11:34:13.728Z,135
2017-02-02T11:35:24.489Z,140
2017-02-02T11:36:34.445Z,145
2017-02-02T11:37:45.227Z,145
2017-02-02T11:38:55.598Z,145
2017-02-02T11:40:06.381Z,145
2017-02-02T11:41:17.157Z,160
2017-02-02T11:42:27.519Z,170
2017-02-02T11:43:37.882Z,175
2017-02-02T11:44:48.627Z,175
2017-02-02T11:45:58.992Z,170
2017-02-02T11:47:08.941Z,175
2017-02-02T11:48:19.728Z,175
2017-02-02T11:49:30.072Z,165
2017-02-02T11:50:40.430Z,165
2017-02-02T11:51:50.784Z,170
2017-02-02T11:53:01.525Z,190
2017-02-02T11:54:11.097Z,210
2017-02-02T11:55:21.869Z,225
2017-02-02T11:56:32.634Z,230
2017-02-02T11:57:43.426Z,230
2017-02-02T11:58:54.201Z,225
2017-02-02T12:00:04.599Z,225
2017-02-02T12:01:14.967Z,225
2017-02-02T12:02:25.329Z,220
2017-02-02T12:03:36.101Z,220
2017-02-02T12:04:47.012Z,215
2017-02-02T12:05:57.752Z,190
2017-02-02T12:07:08.127Z,180
2017-02-02T12:08:18.906Z,170
2017-02-02T12:09:29.253Z,160
2017-02-02T12:10:40.000Z,155
2017-02-02T12:11:49.963Z,155
2017-02-02T12:13:00.717Z,150
2017-02-02T12:14:11.462Z,155
2017-02-02T12:15:22.048Z,160
2017-02-02T12:16:32.008Z,160
2017-02-02T12:17:42.370Z,160
2017-02-02T12:18:52.727Z,160
2017-02-02T12:20:03.486Z,145
2017-02-02T12:21:13.444Z,140
2017-02-02T12:22:24.197Z,135
2017-02-02T12:23:34.171Z,140
2017-02-02T12:24:44.930Z,145
2017-02-02T12:25:55.696Z,140
2017-02-02T12:27:06.039Z,140
2017-02-02T12:28:16.782Z,145
2017-02-02T12:29:27.538Z,145
2017-02-02T12:30:37.880Z,145
2017-02-02T12:31:48.654Z,140
2017-02-02T12:32:59.047Z,145
2017-02-02T12:34:09.400Z,145
2017-02-02T12:35:20.157Z,145
2017-02-02T12:36:30.494Z,140
2017-02-02T12:37:40.830Z,145
2017-02-02T12:38:51.180Z,145
2017-02-02T12:40:01.967Z,145
2017-02-02T12:41:12.336Z,145
2017-02-02T12:42:22.688Z,145
2017-02-02T12:43:33.034Z,150
2017-02-02T12:44:43.783Z,150
2017-02-02T12:45:53.738Z,155
2017-02-02T12:47:04.503Z,155
2017-02-02T12:48:14.870Z,155
2017-02-02T12:49:25.226Z,150
2017-02-02T12:50:35.964Z,150
2017-02-02T12:51:46.722Z,140
2017-02-02T12:52:57.084Z,135
2017-02-02T12:54:06.650Z,130
2017-02-02T12:55:16.611Z,125
2017-02-02T12:56:26.966Z,125
2017-02-02T12:57:37.751Z,120
2017-02-02T12:58:47.717Z,120
2017-02-02T12:59:58.083Z,115
2017-02-02T13:01:08.430Z,105
2017-02-02T13:02:19.182Z,100
2017-02-02T13:03:29.982Z,95
2017-02-02T13:04:40.741Z,100
2017-02-02T13:05:50.722Z,110
2017-02-02T13:07:01.080Z,115
2017-02-02T13:08:11.431Z,120
2017-02-02T13:09:22.198Z,120
2017-02-02T13:10:33.149Z,125
2017-02-02T13:11:43.921Z,120
2017-02-02T13:12:54.262Z,110
2017-02-02T13:14:04.617Z,105
2017-02-02T13:15:15.381Z,105
2017-02-02T13:16:25.739Z,100
2017-02-02T13:17:36.099Z,90
2017-02-02T13:18:46.474Z,90
2017-02-02T13:19:57.263Z,90
2017-02-02T13:21:08.028Z,95
2017-02-02T13:22:18.395Z,95
2017-02-02T13:23:29.159Z,90
2017-02-02T13:24:39.891Z,95
2017-02-02T13:25:50.646Z,100
2017-02-02T13:27:00.993Z,100
2017-02-02T13:28:11.759Z,100
2017-02-02T13:29:22.148Z,95
2017-02-02T13:30:32.507Z,95
2017-02-02T13:31:43.299Z,90
2017-02-02T13:32:53.652Z,90
2017-02-02T13:34:04.427Z,90
2017-02-02T13:35:14.797Z,90
2017-02-02T13:36:25.150Z,90
2017-02-02T13:37:35.501Z,90
2017-02-02T13:38:46.259Z,90
2017-02-02T13:39:57.015Z,90
2017-02-02T13:41:06.977Z,90
2017-02-02T13:42:17.742Z,85
2017-02-02T13:43:27.699Z,80
2017-02-02T13:44:38.049Z,75
2017-02-02T13:45:48.406Z,75
2017-02-02T13:46:58.797Z,75
2017-02-02T13:48:09.582Z,80
2017-02-02T13:49:20.138Z,80
2017-02-02T13:50:30.179Z,75
2017-02-02T13:51:40.155Z,65
2017-02-02T13:52:51.053Z,65
2017-02-02T13:54:01.789Z,65
2017-02-02T13:55:12.189Z,65
2017-02-02T13:56:22.955Z,65
2017-02-02T13:57:33.297Z,70
2017-02-02T13:58:44.044Z,65
2017-02-02T13:59:54.417Z,65
2017-02-02T14:01:04.763Z,65
2017-02-02T14:02:15.500Z,65
2017-02-02T14:03:26.229Z,65
2017-02-02T14:04:36.603Z,65
2017-02-02T14:05:47.386Z,60
2017-02-02T14:06:57.343Z,60
2017-02-02T14:08:07.300Z,60
2017-02-02T14:09:18.042Z,55
2017-02-02T14:10:28.391Z,60
2017-02-02T14:11:38.756Z,60
2017-02-02T14:12:49.510Z,55
2017-02-02T14:13:59.868Z,55
2017-02-02T14:15:10.608Z,50
2017-02-02T14:16:20.960Z,50
2017-02-02T14:17:31.318Z,50
2017-02-02T14:18:41.667Z,50
2017-02-02T14:19:52.439Z,50
2017-02-02T14:21:02.792Z,50
2017-02-02T14:22:12.745Z,50
2017-02-02T14:23:23.105Z,45
2017-02-02T14:24:33.858Z,45
2017-02-02T14:25:44.615Z,45
2017-02-02T14:26:55.370Z,45
2017-02-02T14:28:05.718Z,45
2017-02-02T14:29:16.063Z,45
2017-02-02T14:30:26.460Z,40
2017-02-02T14:31:37.234Z,40
2017-02-02T14:32:48.009Z,45
2017-02-02T14:33:58.389Z,45
2017-02-02T14:35:08.732Z,45
2017-02-02T14:36:19.482Z,50
2017-02-02T14:37:30.247Z,50
2017-02-02T14:38:40.591Z,50
2017-02-02T14:39:51.349Z,50
2017-02-02T14:41:01.306Z,45
2017-02-02T14:42:11.270Z,45
2017-02-02T14:43:22.024Z,50
2017-02-02T14:44:32.788Z,50
2017-02-02T14:45:43.135Z,50
2017-02-02T14:46:53.883Z,50
2017-02-02T14:48:04.639Z,50
2017-02-02T14:49:14.610Z,45
2017-02-02T14:50:25.367Z,45
2017-02-02T14:51:35.722Z,40
2017-02-02T14:52:46.478Z,40
2017-02-02T14:53:57.223Z,40
2017-02-02T14:55:07.569Z,35
2017-02-02T14:56:17.929Z,35
2017-02-02T14:57:28.726Z,35
2017-02-02T14:58:39.083Z,30
2017-02-02T14:59:49.893Z,30
2017-02-02T15:01:00.685Z,30
2017-02-02T15:02:11.037Z,30
2017-02-02T15:03:21.007Z,25
2017-02-02T15:04:31.788Z,30
2017-02-02T15:05:42.542Z,30
2017-02-02T15:06:52.887Z,25
2017-02-02T15:08:03.647Z,25
2017-02-02T15:09:14.395Z,20
2017-02-02T15:10:25.150Z,15
2017-02-02T15:11:35.902Z,15
2017-02-02T15:12:45.866Z,15
2017-02-02T15:13:56.621Z,15
2017-02-02T15:15:07.393Z,15
2017-02-02T15:16:17.785Z,15
2017-02-02T15:17:28.614Z,15
2017-02-02T15:18:38.593Z,15
2017-02-02T15:19:48.964Z,10
2017-02-02T15:20:59.718Z,10
2017-02-02T15:22:10.086Z,10
2017-02-02T15:23:20.840Z,10
2017-02-02T15:24:31.594Z,10
2017-02-02T15:25:42.352Z,5
2017-02-02T15:26:53.117Z,5
2017-02-02T15:28:03.883Z,5
2017-02-02T15:29:14.660Z,5
2017-02-02T15:30:25.439Z,5
2017-02-02T15:31:35.782Z,5
2017-02-02T15:32:46.551Z,5
2017-02-02T15:33:56.925Z,5
2017-02-02T15:35:06.941Z,5
2017-02-02T15:36:17.336Z,0
2017-02-02T15:37:28.167Z,0
2017-02-02T15:38:38.955Z,0
2017-02-02T15:39:49.749Z,0
2017-02-02T15:41:00.569Z,0
2017-02-02T15:42:11.355Z,0
2017-02-02T15:43:22.103Z,0
2017-02-02T15:44:32.452Z,0
2017-02-02T15:45:42.821Z,0
2017-02-02T15:46:53.560Z,0
2017-02-02T15:48:03.537Z,0
2017-02-02T15:49:13.516Z,0
2017-02-02T15:50:23.478Z,0
2017-02-02T15:51:33.456Z,0
2017-02-02T15:52:44.231Z,0
2017-02-02T15:53:55.012Z,0
2017-02-02T15:55:05.760Z,0
2017-02-02T15:56:15.716Z,0
2017-02-02T15:57:25.697Z,0
2017-02-02T15:58:36.087Z,0
2017-02-02T15:59:46.449Z,0
2017-02-02T16:00:57.213Z,0
2017-02-02T16:02:07.555Z,0
2017-02-02T16:03:16.730Z,0
2017-02-02T16:04:27.484Z,0
2017-02-02T16:05:38.230Z,0
2017-02-02T16:06:48.983Z,0
2017-02-02T16:07:59.729Z,0
2017-02-02T16:09:10.073Z,0
2017-02-02T16:10:20.843Z,0
2017-02-02T16:11:31.214Z,0
2017-02-02T16:12:41.177Z,0
2017-02-02T16:13:51.534Z,0
2017-02-02T16:15:02.486Z,0
2017-02-02T16:16:13.234Z,0
2017-02-02T16:17:23.197Z,0
2017-02-02T16:18:33.965Z,0
2017-02-02T16:19:44.707Z,0
2017-02-02T16:20:55.070Z,0
2017-02-02T16:22:05.037Z,0
2017-02-02T16:23:15.787Z,0
2017-02-02T16:24:26.559Z,0
2017-02-02T16:25:36.852Z,0
2017-02-02T16:26:47.039Z,0
2017-02-02T16:27:57.240Z,0
2017-02-02T16:29:06.811Z,0
2017-02-02T16:30:17.154Z,0
2017-02-02T16:31:27.514Z,0
2017-02-02T16:32:37.482Z,0
2017-02-02T16:33:48.257Z,0
2017-02-02T16:34:59.001Z,0
2017-02-02T16:36:09.381Z,0
2017-02-02T16:37:20.161Z,0
2017-02-02T16:38:30.515Z,0
2017-02-02T16:39:40.877Z,0
2017-02-02T16:40:51.636Z,0
2017-02-02T16:42:01.596Z,0
2017-02-02T16:43:12.359Z,0
2017-02-02T16:44:23.093Z,0
2017-02-02T16:45:33.688Z,0
2017-02-02T16:46:44.442Z,0
2017-02-02T16:47:55.202Z,0
2017-02-02T16:49:05.553Z,0
2017-02-02T16:50:16.321Z,0
2017-02-02T16:51:26.695Z,0
2017-02-02T16:52:37.482Z,0
2017-02-02T16:53:48.228Z,0
2017-02-02T16:54:58.639Z,0
2017-02-02T16:56:08.996Z,0
2017-02-02T16:57:19.368Z,0
2017-02-02T16:58:29.743Z,0
2017-02-02T16:59:40.117Z,0
2017-02-02T17:00:50.490Z,0
2017-02-02T17:02:01.277Z,0
2017-02-02T17:03:11.645Z,0
2017-02-02T17:04:22.396Z,0
2017-02-02T17:05:32.747Z,0
2017-02-02T17:06:43.505Z,0
2017-02-02T17:07:53.906Z,0
2017-02-02T17:09:04.683Z,0
2017-02-02T17:10:14.679Z,0
2017-02-02T17:11:25.434Z,0
2017-02-02T17:12:36.181Z,0
2017-02-02T17:13:46.927Z,0
2017-02-02T17:14:57.279Z,0
2017-02-02T17:16:07.257Z,0
2017-02-02T17:17:18.017Z,0
2017-02-02T17:18:28.379Z,0
2017-02-02T17:19:39.118Z,0
2017-02-02T17:20:49.872Z,0